Laughlin Air Force Base, TX

02:03 CDT le 03 septembre 2014 (GMT -0500)
Del Rio Laughlin AFB | Change Station
CLOSE
Current Station
Aéroport
Location: Del Rio Laughlin AFB,
Altitude: 1083 ft
Stations météo à proximité

Alt. 1083 ft 29.36 °N, 100.78 °W | Updated 1 hour ago

Clear
Ciel dégagé
84 ° F
Paraît 88 ° F
N
13
Vent Variable Vent de SE

Aujourd'hui
Haut(e) -- | Bas -- ° F
--% Risque de précip.
Hier
Haut(e) -- | Bas -- ° F
Precip. -- pouce
7:21 AM 8:02 PM
Premier quartier, 59% visible
Pression 29.88 pouce
Visibilité 10.0 Miles terrestres
Nuages Ciel dégagé
indice de chaleur 88 ° F
Point de rosée 70 ° F
Humidité 64%
Précipitations 0.00 pouce
Profondeur de la couche neigeuse Non disponible.
UV 0 sur 12
Pollen 10.10 sur 12
Qualité de l'air Non disponible.
Flu Activity Non disponible.
METAR KDLF 030558Z AUTO 14011KT 10SM CLR 29/21 A2992 RMK AO2 SLP116 T02870214 10356 20287 52017 $

More Conditions Fewer Conditions

Pression 29.88 pouce
Visibilité 10.0 Miles terrestres
Nuages Ciel dégagé
indice de chaleur 88 ° F
Point de rosée 70 ° F
Humidité 64%
Précipitations 0.00 pouce
Profondeur de la couche neigeuse Non disponible.
UV 0 sur 12
Pollen 10.10 sur 12
Qualité de l'air Non disponible.
Flu Activity Non disponible.
METAR KDLF 030558Z AUTO 14011KT 10SM CLR 29/21 A2992 RMK AO2 SLP116 T02870214 10356 20287 52017 $

More Conditions Fewer Conditions

10-Day Weather Forecast

Almanac

Astronomie

Sep. 03, 2014 Lever Coucher
Temps réel 07:21 CDT 20:02 CDT
Crépuscule civil 06:57 CDT 20:26 CDT
Crépuscule nautique 06:29 CDT 20:55 CDT
Crépuscule astronomique 06:00 CDT 21:23 CDT
Lune 15:32 CDT 01:31 CDT
Durée de lumière visible 13h 29m
Longueur du jour
12h 40m
Tomorrow will be 1m 43s shorter.
Premier quartier, 59% of the Moon is Illuminated
Aujourd'hui
Premier quartier
Sep 8
Pleine lune
Sep 15
Dernier quartier
Sep 24
Nouveau
Oct 1
Premier quartier

Extrêmes aujourd'hui

State Highs State Lows

Community

WunderPhotos

Upload Photos

1,749,888 Photos téléchargées !

Nearby

Épaisseur de neige

Station Depth Altitude
Pas de nouvelles chutes de neige

Activité sismique

Ville Distance Mag. Time & Date
No recent earthquake activity has been reported nearby.
Minimum magnitude displayed is 2.5.

Températures des eaux côtières

Lieu Température
Aucun rapport de station

Stations météo à proximité